createdAt,value
2017-09-24T00:00:17.372Z,73.30
2017-09-24T00:02:45.537Z,72.40
2017-09-24T00:05:13.710Z,72.80
2017-09-24T00:07:41.869Z,72.60
2017-09-24T00:10:10.028Z,72.90
2017-09-24T00:12:38.213Z,72.50
2017-09-24T00:15:06.418Z,72.90
2017-09-24T00:17:34.625Z,72.70
2017-09-24T00:20:02.807Z,72.40
2017-09-24T00:22:30.966Z,73.10
2017-09-24T00:25:00.051Z,74.00
2017-09-24T00:27:29.024Z,72.70
2017-09-24T00:29:57.207Z,72.60
2017-09-24T00:32:26.165Z,72.20
2017-09-24T00:34:54.311Z,72.10
2017-09-24T00:37:22.491Z,73.70
2017-09-24T00:39:50.674Z,73.10
2017-09-24T00:42:18.874Z,74.30
2017-09-24T00:44:47.029Z,74.50
2017-09-24T00:47:15.986Z,73.70
2017-09-24T00:49:44.925Z,73.20
2017-09-24T00:52:13.071Z,73.20
2017-09-24T00:54:41.281Z,73.10
2017-09-24T00:57:09.439Z,72.80
2017-09-24T00:59:37.622Z,72.50
2017-09-24T01:02:05.809Z,72.90
2017-09-24T01:04:33.996Z,74.50
2017-09-24T01:07:02.954Z,75.20
2017-09-24T01:09:31.118Z,75.20
2017-09-24T01:11:59.312Z,74.70
2017-09-24T01:14:27.469Z,74.20
2017-09-24T01:16:55.627Z,74.20
2017-09-24T01:19:23.827Z,73.60
2017-09-24T01:21:52.017Z,73.40
2017-09-24T01:24:20.250Z,73.30
2017-09-24T01:26:48.429Z,73.20
2017-09-24T01:29:16.682Z,72.60
2017-09-24T01:31:45.612Z,74.00
2017-09-24T01:34:13.802Z,74.00
2017-09-24T01:36:41.957Z,74.20
2017-09-24T01:39:10.130Z,73.70
2017-09-24T01:41:38.311Z,73.30
2017-09-24T01:44:06.522Z,73.60
2017-09-24T01:46:35.469Z,73.70
2017-09-24T01:49:03.653Z,73.50
2017-09-24T01:51:31.824Z,73.50
2017-09-24T01:54:00.058Z,73.00
2017-09-24T01:56:28.253Z,73.20
2017-09-24T01:58:56.428Z,74.00
2017-09-24T02:01:24.633Z,73.70
2017-09-24T02:03:52.797Z,73.30
2017-09-24T02:06:20.974Z,72.90
2017-09-24T02:08:49.174Z,72.20
2017-09-24T02:11:18.117Z,72.70
2017-09-24T02:13:46.315Z,72.60
2017-09-24T02:16:14.473Z,72.30
2017-09-24T02:18:43.457Z,73.20
2017-09-24T02:21:12.879Z,73.10
2017-09-24T02:23:41.045Z,73.20
2017-09-24T02:26:09.991Z,73.00
2017-09-24T02:28:38.212Z,73.00
2017-09-24T02:31:06.371Z,72.50
2017-09-24T02:33:34.544Z,71.20
2017-09-24T02:36:02.792Z,71.70
2017-09-24T02:38:31.727Z,71.90
2017-09-24T02:40:59.901Z,71.90
2017-09-24T02:43:28.081Z,71.60
2017-09-24T02:45:56.240Z,73.00
2017-09-24T02:48:24.498Z,72.70
2017-09-24T02:50:52.670Z,72.20
2017-09-24T02:53:20.841Z,72.00
2017-09-24T02:55:49.013Z,72.30
2017-09-24T02:58:17.206Z,72.10
2017-09-24T03:00:45.400Z,72.10
2017-09-24T03:03:13.578Z,72.30
2017-09-24T03:05:43.224Z,73.20
2017-09-24T03:08:12.174Z,73.40
2017-09-24T03:10:40.344Z,73.40
2017-09-24T03:13:08.503Z,72.90
2017-09-24T03:15:36.685Z,72.60
2017-09-24T03:18:04.837Z,72.20
2017-09-24T03:20:33.030Z,72.30
2017-09-24T03:23:01.215Z,72.40
2017-09-24T03:25:30.166Z,72.90
2017-09-24T03:27:58.342Z,72.80
2017-09-24T03:30:26.538Z,74.10
2017-09-24T03:32:56.361Z,73.00
2017-09-24T03:35:24.534Z,73.00
2017-09-24T03:37:52.689Z,71.80
2017-09-24T03:40:20.887Z,71.50
2017-09-24T03:42:49.060Z,71.40
2017-09-24T03:45:17.240Z,71.20
2017-09-24T03:47:45.412Z,71.10
2017-09-24T03:50:13.628Z,71.90
2017-09-24T03:52:42.572Z,72.20
2017-09-24T03:55:10.746Z,72.20
2017-09-24T03:57:39.784Z,73.20
2017-09-24T04:00:07.965Z,73.20
2017-09-24T04:02:36.922Z,73.20
2017-09-24T04:05:05.081Z,73.00
2017-09-24T04:07:33.277Z,73.40
2017-09-24T04:10:01.447Z,74.20
2017-09-24T04:12:29.610Z,75.50
2017-09-24T04:14:57.793Z,75.60
2017-09-24T04:17:25.971Z,75.90
2017-09-24T04:19:54.165Z,75.90
2017-09-24T04:22:23.103Z,76.90
2017-09-24T04:24:51.278Z,76.70
2017-09-24T04:27:20.207Z,78.50
2017-09-24T04:29:48.396Z,78.50
2017-09-24T04:32:17.339Z,76.70
2017-09-24T04:34:45.511Z,76.50
2017-09-24T04:37:13.714Z,75.60
2017-09-24T04:39:41.898Z,75.00
2017-09-24T04:42:10.080Z,75.30
2017-09-24T04:44:39.057Z,74.50
2017-09-24T04:47:07.242Z,74.50
2017-09-24T04:49:35.402Z,74.10
2017-09-24T04:52:03.570Z,73.70
2017-09-24T04:54:31.747Z,74.00
2017-09-24T04:56:59.921Z,74.40
2017-09-24T04:59:28.098Z,73.70
2017-09-24T05:01:56.277Z,74.20
2017-09-24T05:04:24.453Z,73.70
2017-09-24T05:06:52.634Z,73.00
2017-09-24T05:09:20.789Z,72.90
2017-09-24T05:11:48.983Z,72.80
2017-09-24T05:14:17.160Z,72.50
2017-09-24T05:16:45.327Z,71.40
2017-09-24T05:19:13.508Z,72.40
2017-09-24T05:21:42.466Z,71.30
2017-09-24T05:24:10.655Z,71.20
2017-09-24T05:26:40.371Z,71.90
2017-09-24T05:29:08.556Z,71.80
2017-09-24T05:31:36.717Z,71.90
2017-09-24T05:34:04.885Z,71.80
2017-09-24T05:36:33.084Z,71.30
2017-09-24T05:39:02.048Z,71.50
2017-09-24T05:41:30.227Z,71.50
2017-09-24T05:43:58.510Z,71.90
2017-09-24T05:46:26.705Z,71.70
2017-09-24T05:48:56.379Z,72.10
2017-09-24T05:51:24.567Z,72.10
2017-09-24T05:53:52.724Z,72.20
2017-09-24T05:56:20.897Z,71.80
2017-09-24T05:58:49.070Z,71.60
2017-09-24T06:01:17.274Z,72.30
2017-09-24T06:03:45.473Z,72.60
2017-09-24T06:06:14.387Z,72.20
2017-09-24T06:08:42.590Z,72.20
2017-09-24T06:11:10.763Z,73.60
2017-09-24T06:13:39.841Z,73.20
2017-09-24T06:16:08.002Z,73.10
2017-09-24T06:18:36.191Z,74.00
2017-09-24T06:21:05.457Z,74.50
2017-09-24T06:23:34.405Z,74.00
2017-09-24T06:26:02.583Z,73.80
2017-09-24T06:28:30.752Z,73.30
2017-09-24T06:30:58.934Z,73.40
2017-09-24T06:33:28.064Z,73.80
2017-09-24T06:35:57.007Z,76.10
2017-09-24T06:38:25.173Z,76.10
2017-09-24T06:40:53.344Z,76.60
2017-09-24T06:43:21.529Z,77.40
2017-09-24T06:45:50.633Z,77.50
2017-09-24T06:48:18.812Z,76.30
2017-09-24T06:50:46.987Z,76.50
2017-09-24T06:53:15.174Z,78.00
2017-09-24T06:55:44.131Z,79.70
2017-09-24T06:58:12.322Z,79.50
2017-09-24T07:00:40.540Z,79.70
2017-09-24T07:03:09.479Z,79.70
2017-09-24T07:05:37.656Z,79.70
2017-09-24T07:08:05.820Z,79.40
2017-09-24T07:10:34.467Z,78.80
2017-09-24T07:13:02.672Z,80.20
2017-09-24T07:15:31.893Z,80.60
2017-09-24T07:18:00.097Z,81.30
2017-09-24T07:20:29.046Z,79.10
2017-09-24T07:22:57.211Z,79.00
2017-09-24T07:25:25.429Z,79.10
2017-09-24T07:27:53.596Z,77.90
2017-09-24T07:30:21.856Z,77.50
2017-09-24T07:32:50.028Z,76.70
2017-09-24T07:35:19.177Z,76.30
2017-09-24T07:37:48.352Z,76.20
2017-09-24T07:40:17.317Z,76.00
2017-09-24T07:42:45.511Z,76.00
2017-09-24T07:45:14.665Z,77.00
2017-09-24T07:47:42.866Z,77.30
2017-09-24T07:50:11.124Z,76.20
2017-09-24T07:52:39.309Z,76.90
2017-09-24T07:55:08.249Z,77.30
2017-09-24T07:57:36.422Z,77.30
2017-09-24T08:00:04.917Z,77.00
2017-09-24T08:02:33.101Z,77.20
2017-09-24T08:05:01.369Z,78.50
2017-09-24T08:07:29.560Z,79.60
2017-09-24T08:09:57.738Z,79.80
2017-09-24T08:12:26.119Z,80.80
2017-09-24T08:14:55.154Z,82.10
2017-09-24T08:17:24.128Z,82.50
2017-09-24T08:19:52.348Z,82.50
2017-09-24T08:22:20.589Z,81.80
2017-09-24T08:24:48.808Z,81.90
2017-09-24T08:27:17.007Z,81.80
2017-09-24T08:29:45.170Z,81.60
2017-09-24T08:32:13.401Z,80.30
2017-09-24T08:34:42.351Z,78.60
2017-09-24T08:37:10.581Z,78.50
2017-09-24T08:39:40.946Z,78.00
2017-09-24T08:42:09.132Z,78.00
2017-09-24T08:44:37.373Z,78.90
2017-09-24T08:47:05.551Z,78.40
2017-09-24T08:49:33.777Z,78.20
2017-09-24T08:52:01.938Z,79.30
2017-09-24T08:54:31.189Z,79.70
2017-09-24T08:56:59.363Z,78.80
2017-09-24T08:59:27.837Z,79.00
2017-09-24T09:01:56.100Z,79.50
2017-09-24T09:04:25.051Z,79.50
2017-09-24T09:06:53.231Z,79.50
2017-09-24T09:09:22.390Z,79.90
2017-09-24T09:11:50.625Z,78.80
2017-09-24T09:14:20.673Z,79.10
2017-09-24T09:16:48.918Z,79.10
2017-09-24T09:19:17.907Z,77.20
2017-09-24T09:21:46.133Z,77.20
2017-09-24T09:24:14.373Z,76.20
2017-09-24T09:26:43.368Z,74.70
2017-09-24T09:29:12.393Z,74.40
2017-09-24T09:31:40.675Z,74.30
2017-09-24T09:34:20.701Z,74.40
2017-09-24T09:36:48.918Z,73.70
2017-09-24T09:39:17.902Z,71.80
2017-09-24T09:41:46.081Z,71.90
2017-09-24T09:44:26.080Z,71.50
2017-09-24T09:47:05.818Z,71.20
2017-09-24T09:49:34.820Z,70.30
2017-09-24T09:52:04.720Z,70.30
2017-09-24T09:54:33.754Z,69.60
2017-09-24T09:57:02.920Z,69.50
2017-09-24T09:59:31.876Z,68.80
2017-09-24T10:02:00.100Z,68.70
2017-09-24T10:04:28.316Z,68.80
2017-09-24T10:07:09.475Z,68.30
2017-09-24T10:09:49.479Z,68.00
2017-09-24T10:12:18.518Z,67.50
2017-09-24T10:14:46.795Z,67.50
2017-09-24T10:17:15.802Z,66.90
2017-09-24T10:19:45.088Z,66.00
2017-09-24T10:22:13.268Z,66.40
2017-09-24T10:24:41.479Z,67.90
2017-09-24T10:27:10.665Z,68.10
2017-09-24T10:29:38.854Z,68.60
2017-09-24T10:32:08.046Z,69.20
2017-09-24T10:34:36.269Z,69.40
2017-09-24T10:37:04.480Z,68.50
2017-09-24T10:39:32.909Z,68.20
2017-09-24T10:42:02.157Z,68.70
2017-09-24T10:44:30.406Z,68.00
2017-09-24T10:46:58.619Z,68.10
2017-09-24T10:49:26.854Z,67.20
2017-09-24T10:51:55.099Z,67.30
2017-09-24T10:54:23.349Z,66.50
2017-09-24T10:56:52.359Z,66.40
2017-09-24T10:59:21.398Z,65.60
2017-09-24T11:01:49.613Z,65.60
2017-09-24T11:04:17.832Z,65.50
2017-09-24T11:06:46.029Z,64.60
2017-09-24T11:09:14.236Z,63.90
2017-09-24T11:11:42.475Z,62.90
2017-09-24T11:14:10.691Z,61.50
2017-09-24T11:16:39.867Z,61.40
2017-09-24T11:19:08.054Z,61.70
2017-09-24T11:21:37.054Z,61.80
2017-09-24T11:24:05.292Z,61.80
2017-09-24T11:26:33.503Z,62.40
2017-09-24T11:29:01.881Z,63.00
2017-09-24T11:31:30.135Z,63.20
2017-09-24T11:33:58.343Z,63.20
2017-09-24T11:36:26.596Z,63.10
2017-09-24T11:38:54.803Z,62.10
2017-09-24T11:41:24.815Z,62.50
2017-09-24T11:43:53.026Z,62.50
2017-09-24T11:46:22.198Z,62.50
2017-09-24T11:49:10.409Z,62.50
2017-09-24T11:51:38.610Z,62.40
2017-09-24T11:54:07.594Z,62.10
2017-09-24T11:56:36.186Z,62.00
2017-09-24T11:59:05.173Z,61.60
2017-09-24T12:01:33.366Z,61.60
2017-09-24T12:04:02.339Z,60.80
2017-09-24T12:06:30.579Z,60.80
2017-09-24T12:08:58.799Z,60.90
2017-09-24T12:11:26.928Z,60.50
2017-09-24T12:13:55.885Z,59.70
2017-09-24T12:16:24.027Z,59.80
2017-09-24T12:18:52.174Z,58.40
2017-09-24T12:21:20.350Z,58.50
2017-09-24T12:23:48.487Z,57.80
2017-09-24T12:26:16.640Z,57.90
2017-09-24T12:28:44.764Z,58.40
2017-09-24T12:31:12.923Z,58.00
2017-09-24T12:33:41.092Z,58.60
2017-09-24T12:36:10.002Z,54.20
2017-09-24T12:38:38.161Z,54.00
2017-09-24T12:41:07.133Z,52.80
2017-09-24T12:43:36.218Z,52.80
2017-09-24T12:46:05.165Z,53.90
2017-09-24T12:48:33.316Z,53.80
2017-09-24T12:51:01.463Z,53.90
2017-09-24T12:53:30.387Z,55.90
2017-09-24T12:55:58.639Z,55.90
2017-09-24T12:58:27.556Z,56.50
2017-09-24T13:00:55.730Z,56.50
2017-09-24T13:03:23.866Z,55.70
2017-09-24T13:05:52.804Z,56.10
2017-09-24T13:08:20.983Z,56.10
2017-09-24T13:10:49.117Z,54.80
2017-09-24T13:13:17.266Z,54.40
2017-09-24T13:15:46.168Z,51.30
2017-09-24T13:18:14.366Z,51.10
2017-09-24T13:20:42.527Z,49.50
2017-09-24T13:23:10.701Z,48.50
2017-09-24T13:25:38.863Z,48.10
2017-09-24T13:28:07.027Z,47.70
2017-09-24T13:30:35.176Z,49.10
2017-09-24T13:33:04.098Z,49.60
2017-09-24T13:35:32.250Z,49.50
2017-09-24T13:38:01.473Z,48.10
2017-09-24T13:40:29.604Z,48.10
2017-09-24T13:42:57.786Z,46.40
2017-09-24T13:45:26.717Z,44.60
2017-09-24T13:47:54.876Z,44.60
2017-09-24T13:50:23.012Z,45.20
2017-09-24T13:52:51.979Z,45.10
2017-09-24T13:55:20.102Z,45.10
2017-09-24T13:57:48.285Z,44.50
2017-09-24T14:00:16.434Z,43.80
2017-09-24T14:02:44.583Z,43.40
2017-09-24T14:05:13.528Z,44.20
2017-09-24T14:07:41.670Z,44.10
2017-09-24T14:10:09.834Z,44.30
2017-09-24T14:12:38.734Z,45.90
2017-09-24T14:15:06.897Z,46.50
2017-09-24T14:17:35.033Z,46.00
2017-09-24T14:20:03.209Z,46.00
2017-09-24T14:22:31.333Z,46.90
2017-09-24T14:24:59.484Z,48.50
2017-09-24T14:27:28.402Z,50.90
2017-09-24T14:29:56.575Z,50.80
2017-09-24T14:32:24.727Z,51.50
2017-09-24T14:34:52.914Z,50.50
2017-09-24T14:37:21.060Z,49.20
2017-09-24T14:39:49.974Z,44.10
2017-09-24T14:42:18.116Z,44.10
2017-09-24T14:44:46.269Z,44.00
2017-09-24T14:47:15.188Z,44.50
2017-09-24T14:49:43.324Z,44.20
2017-09-24T14:52:11.497Z,43.80
2017-09-24T14:54:39.650Z,43.40
2017-09-24T14:57:07.820Z,41.90
2017-09-24T14:59:35.961Z,40.50
2017-09-24T15:02:04.098Z,38.30
2017-09-24T15:04:33.040Z,38.40
2017-09-24T15:07:01.172Z,38.40
2017-09-24T15:09:29.352Z,38.00
2017-09-24T15:11:57.505Z,36.20
2017-09-24T15:14:26.442Z,35.50
2017-09-24T15:16:54.596Z,35.40
2017-09-24T15:19:22.734Z,33.00
2017-09-24T15:21:50.880Z,31.80
2017-09-24T15:24:19.068Z,32.30
2017-09-24T15:26:47.234Z,33.90
2017-09-24T15:29:15.381Z,37.10
2017-09-24T15:31:43.568Z,38.40
2017-09-24T15:34:11.722Z,41.40
2017-09-24T15:36:39.907Z,44.10
2017-09-24T15:39:08.117Z,45.20
2017-09-24T15:41:37.059Z,43.70
2017-09-24T15:44:05.217Z,43.30
2017-09-24T15:46:33.366Z,44.00
2017-09-24T15:49:01.551Z,44.70
2017-09-24T15:51:29.754Z,45.30
2017-09-24T15:53:57.932Z,46.60
2017-09-24T15:56:26.149Z,47.60
2017-09-24T15:58:54.325Z,48.00
2017-09-24T16:01:22.500Z,48.30
2017-09-24T16:03:51.411Z,50.00
2017-09-24T16:06:19.607Z,50.00
2017-09-24T16:08:47.758Z,50.60
2017-09-24T16:11:15.918Z,51.30
2017-09-24T16:13:44.068Z,52.20
2017-09-24T16:16:13.017Z,53.60
2017-09-24T16:18:41.217Z,53.60
2017-09-24T16:21:09.352Z,54.00
2017-09-24T16:23:37.519Z,55.00
2017-09-24T16:26:05.665Z,55.70
2017-09-24T16:28:33.845Z,56.30
2017-09-24T16:31:02.015Z,56.90
2017-09-24T16:33:30.143Z,56.90
2017-09-24T16:35:58.298Z,57.00
2017-09-24T16:38:26.437Z,57.40
2017-09-24T16:40:55.378Z,59.40
2017-09-24T16:43:23.513Z,59.40
2017-09-24T16:45:51.658Z,60.00
2017-09-24T16:48:19.818Z,60.70
2017-09-24T16:50:47.981Z,60.90
2017-09-24T16:53:16.885Z,62.30
2017-09-24T16:55:45.463Z,62.20
2017-09-24T16:58:13.620Z,62.20
2017-09-24T17:00:42.583Z,63.50
2017-09-24T17:03:10.765Z,63.40
2017-09-24T17:05:38.919Z,64.20
2017-09-24T17:08:07.097Z,64.70
2017-09-24T17:10:35.240Z,64.90
2017-09-24T17:13:04.163Z,64.80
2017-09-24T17:15:32.330Z,64.60
2017-09-24T17:18:00.504Z,65.10
2017-09-24T17:20:29.415Z,65.60
2017-09-24T17:22:58.342Z,66.30
2017-09-24T17:25:26.533Z,66.30
2017-09-24T17:27:54.693Z,66.90
2017-09-24T17:30:22.875Z,67.40
2017-09-24T17:32:51.016Z,67.50
2017-09-24T17:35:19.172Z,66.50
2017-09-24T17:37:48.084Z,65.70
2017-09-24T17:40:16.244Z,65.70
2017-09-24T17:42:44.383Z,65.50
2017-09-24T17:45:12.528Z,65.30
2017-09-24T17:47:40.708Z,65.10
2017-09-24T17:50:08.852Z,65.20
2017-09-24T17:52:37.020Z,65.00
2017-09-24T17:55:05.154Z,65.00
2017-09-24T17:57:33.344Z,65.10
2017-09-24T18:00:01.533Z,65.00
2017-09-24T18:02:29.666Z,65.00
2017-09-24T18:04:58.642Z,65.20
2017-09-24T18:07:26.818Z,65.20
2017-09-24T18:09:55.038Z,65.70
2017-09-24T18:12:23.184Z,66.50
2017-09-24T18:14:52.120Z,66.70
2017-09-24T18:17:21.075Z,67.40
2017-09-24T18:19:50.020Z,67.70
2017-09-24T18:22:18.185Z,67.70
2017-09-24T18:24:46.352Z,67.70
2017-09-24T18:27:14.522Z,68.10
2017-09-24T18:29:42.692Z,68.00
2017-09-24T18:32:10.820Z,67.70
2017-09-24T18:34:39.005Z,67.50
2017-09-24T18:37:07.140Z,68.20
2017-09-24T18:39:36.099Z,68.40
2017-09-24T18:42:04.245Z,68.40
2017-09-24T18:44:32.432Z,69.20
2017-09-24T18:47:00.572Z,69.20
2017-09-24T18:49:28.750Z,69.30
2017-09-24T18:51:56.903Z,69.30
2017-09-24T18:54:25.852Z,70.20
2017-09-24T18:56:53.997Z,70.10
2017-09-24T18:59:22.191Z,70.20
2017-09-24T19:01:50.337Z,70.50
2017-09-24T19:04:19.242Z,72.50
2017-09-24T19:06:47.422Z,71.80
2017-09-24T19:09:15.615Z,71.80
2017-09-24T19:11:43.792Z,71.20
2017-09-24T19:14:11.958Z,71.30
2017-09-24T19:16:40.152Z,71.50
2017-09-24T19:19:09.083Z,71.00
2017-09-24T19:21:37.230Z,71.00
2017-09-24T19:24:05.375Z,71.00
2017-09-24T19:26:33.655Z,71.00
2017-09-24T19:29:01.811Z,71.10
2017-09-24T19:31:29.967Z,71.60
2017-09-24T19:33:58.137Z,71.10
2017-09-24T19:36:26.331Z,70.90
2017-09-24T19:38:54.525Z,70.60
2017-09-24T19:41:23.450Z,70.60
2017-09-24T19:43:52.399Z,71.00
2017-09-24T19:46:20.573Z,70.90
2017-09-24T19:48:48.759Z,71.20
2017-09-24T19:51:17.707Z,71.60
2017-09-24T19:53:45.866Z,71.50
2017-09-24T19:56:14.089Z,71.70
2017-09-24T19:58:42.256Z,71.50
2017-09-24T20:01:11.169Z,71.40
2017-09-24T20:03:39.360Z,71.30
2017-09-24T20:06:07.497Z,71.60
2017-09-24T20:08:36.437Z,71.50
2017-09-24T20:11:04.609Z,71.40
2017-09-24T20:13:32.775Z,71.80
2017-09-24T20:16:00.937Z,72.20
2017-09-24T20:18:29.091Z,72.40
2017-09-24T20:20:57.266Z,72.60
2017-09-24T20:23:25.410Z,72.50
2017-09-24T20:25:54.356Z,73.00
2017-09-24T20:28:22.507Z,73.00
2017-09-24T20:30:50.651Z,73.30
2017-09-24T20:33:19.607Z,73.20
2017-09-24T20:35:47.743Z,73.20
2017-09-24T20:38:15.897Z,72.80
2017-09-24T20:40:44.044Z,73.00
2017-09-24T20:43:12.993Z,73.60
2017-09-24T20:45:41.163Z,73.40
2017-09-24T20:48:09.533Z,73.80
2017-09-24T20:50:37.663Z,73.70
2017-09-24T20:53:05.793Z,73.80
2017-09-24T20:55:33.958Z,73.40
2017-09-24T20:58:02.123Z,73.60
2017-09-24T21:00:30.295Z,73.00
2017-09-24T21:02:58.438Z,73.00
2017-09-24T21:05:26.582Z,73.30
2017-09-24T21:07:55.501Z,74.40
2017-09-24T21:10:23.659Z,74.30
2017-09-24T21:12:52.587Z,75.70
2017-09-24T21:15:20.726Z,75.60
2017-09-24T21:17:48.880Z,75.90
2017-09-24T21:20:17.033Z,75.20
2017-09-24T21:22:45.248Z,74.70
2017-09-24T21:25:13.397Z,74.20
2017-09-24T21:27:41.581Z,73.80
2017-09-24T21:30:10.484Z,74.10
2017-09-24T21:32:38.664Z,74.20
2017-09-24T21:35:06.804Z,74.10
2017-09-24T21:37:36.528Z,74.80
2017-09-24T21:40:05.486Z,75.20
2017-09-24T21:42:33.615Z,75.20
2017-09-24T21:45:02.575Z,75.30
2017-09-24T21:47:31.480Z,76.10
2017-09-24T21:49:59.651Z,76.00
2017-09-24T21:52:27.793Z,76.60
2017-09-24T21:54:56.730Z,77.00
2017-09-24T21:57:24.876Z,76.90
2017-09-24T21:59:53.024Z,77.30
2017-09-24T22:02:21.981Z,76.20
2017-09-24T22:04:50.140Z,76.20
2017-09-24T22:07:18.261Z,75.90
2017-09-24T22:09:47.188Z,75.80
2017-09-24T22:12:15.354Z,75.80
2017-09-24T22:14:44.270Z,75.30
2017-09-24T22:17:12.429Z,75.30
2017-09-24T22:19:40.548Z,75.10
2017-09-24T22:22:09.563Z,74.60
2017-09-24T22:24:38.511Z,74.40
2017-09-24T22:27:06.660Z,74.30
2017-09-24T22:29:34.806Z,74.20
2017-09-24T22:32:02.966Z,74.40
2017-09-24T22:34:31.118Z,74.60
2017-09-24T22:36:59.241Z,75.00
2017-09-24T22:39:27.409Z,74.90
2017-09-24T22:41:55.572Z,74.90
2017-09-24T22:44:24.496Z,75.20
2017-09-24T22:46:52.629Z,75.20
2017-09-24T22:49:20.855Z,75.00
2017-09-24T22:51:48.994Z,74.80
2017-09-24T22:54:17.159Z,74.50
2017-09-24T22:56:45.298Z,74.40
2017-09-24T22:59:13.475Z,74.10
2017-09-24T23:01:41.610Z,73.80
2017-09-24T23:04:09.763Z,73.80
2017-09-24T23:06:37.933Z,73.80
2017-09-24T23:09:06.097Z,74.40
2017-09-24T23:11:34.258Z,74.00
2017-09-24T23:14:02.850Z,74.20
2017-09-24T23:16:30.977Z,74.60
2017-09-24T23:18:59.105Z,74.80
2017-09-24T23:21:27.274Z,74.60
2017-09-24T23:23:55.417Z,74.70
2017-09-24T23:26:23.582Z,74.50
2017-09-24T23:28:51.708Z,74.30
2017-09-24T23:31:19.906Z,74.60
2017-09-24T23:33:48.801Z,75.00
2017-09-24T23:36:16.953Z,75.00
2017-09-24T23:38:45.881Z,75.60
2017-09-24T23:41:14.011Z,75.20
2017-09-24T23:43:42.925Z,74.20
2017-09-24T23:46:11.101Z,74.10
2017-09-24T23:48:39.279Z,73.70
2017-09-24T23:51:08.176Z,73.80
2017-09-24T23:53:36.311Z,73.70
2017-09-24T23:56:05.260Z,73.40
2017-09-24T23:58:34.165Z,73.70
